createdAt,value
2017-06-19T00:00:25.189Z,0
2017-06-19T00:00:51.325Z,0
2017-06-19T00:01:17.443Z,0
2017-06-19T00:01:43.566Z,0
2017-06-19T00:02:09.674Z,0
2017-06-19T00:02:35.767Z,0
2017-06-19T00:03:01.872Z,0
2017-06-19T00:03:28.063Z,0
2017-06-19T00:03:54.264Z,0
2017-06-19T00:04:20.398Z,0
2017-06-19T00:04:46.485Z,0
2017-06-19T00:05:12.587Z,0
2017-06-19T00:05:38.695Z,0
2017-06-19T00:06:04.786Z,0
2017-06-19T00:06:30.884Z,0
2017-06-19T00:06:57.019Z,0
2017-06-19T00:07:23.141Z,0
2017-06-19T00:07:49.231Z,0
2017-06-19T00:08:15.339Z,0
2017-06-19T00:08:41.440Z,0
2017-06-19T00:09:07.546Z,0
2017-06-19T00:09:33.665Z,0
2017-06-19T00:09:59.766Z,0
2017-06-19T00:10:25.920Z,0
2017-06-19T00:10:52.012Z,0
2017-06-19T00:11:18.105Z,0
2017-06-19T00:11:44.268Z,0
2017-06-19T00:12:10.438Z,0
2017-06-19T00:12:36.528Z,0
2017-06-19T00:13:02.664Z,0
2017-06-19T00:13:28.792Z,0
2017-06-19T00:13:54.909Z,0
2017-06-19T00:14:21.015Z,0
2017-06-19T00:14:47.122Z,0
2017-06-19T00:15:13.210Z,0
2017-06-19T00:15:39.339Z,0
2017-06-19T00:16:05.451Z,0
2017-06-19T00:16:31.569Z,0
2017-06-19T00:16:57.668Z,0
2017-06-19T00:17:23.775Z,0
2017-06-19T00:17:49.869Z,0
2017-06-19T00:18:15.987Z,0
2017-06-19T00:18:42.098Z,0
2017-06-19T00:19:08.196Z,0
2017-06-19T00:19:34.300Z,0
2017-06-19T00:20:00.394Z,0
2017-06-19T00:20:26.493Z,0
2017-06-19T00:20:52.601Z,0
2017-06-19T00:21:18.696Z,0
2017-06-19T00:21:44.787Z,0
2017-06-19T00:22:10.926Z,0
2017-06-19T00:22:37.027Z,0
2017-06-19T00:23:03.170Z,0
2017-06-19T00:23:29.277Z,0
2017-06-19T00:23:55.379Z,0
2017-06-19T00:24:21.471Z,0
2017-06-19T00:24:47.576Z,0
2017-06-19T00:25:13.719Z,0
2017-06-19T00:25:39.857Z,0
2017-06-19T00:26:05.956Z,0
2017-06-19T00:26:32.050Z,0
2017-06-19T00:26:58.175Z,0
2017-06-19T00:27:24.287Z,0
2017-06-19T00:27:50.405Z,0
2017-06-19T00:28:16.509Z,0
2017-06-19T00:28:42.618Z,0
2017-06-19T00:29:08.731Z,0
2017-06-19T00:29:34.834Z,0
2017-06-19T00:30:00.970Z,0
2017-06-19T00:30:27.063Z,0
2017-06-19T00:30:53.193Z,0
2017-06-19T00:31:19.285Z,0
2017-06-19T00:31:45.391Z,0
2017-06-19T00:32:11.498Z,0
2017-06-19T00:32:37.589Z,0
2017-06-19T00:33:03.691Z,0
2017-06-19T00:33:29.799Z,0
2017-06-19T00:33:55.889Z,0
2017-06-19T00:34:21.986Z,0
2017-06-19T00:34:48.095Z,0
2017-06-19T00:35:14.214Z,0
2017-06-19T00:35:40.332Z,0
2017-06-19T00:36:06.464Z,0
2017-06-19T00:36:32.567Z,0
2017-06-19T00:36:58.675Z,0
2017-06-19T00:37:24.765Z,0
2017-06-19T00:37:50.862Z,0
2017-06-19T00:38:17.026Z,0
2017-06-19T00:38:43.149Z,0
2017-06-19T00:39:09.242Z,0
2017-06-19T00:39:35.357Z,0
2017-06-19T00:40:01.508Z,0
2017-06-19T00:40:27.600Z,0
2017-06-19T00:40:53.707Z,0
2017-06-19T00:41:19.810Z,0
2017-06-19T00:41:45.937Z,0
2017-06-19T00:42:12.060Z,0
2017-06-19T00:42:38.153Z,0
2017-06-19T00:43:04.264Z,0
2017-06-19T00:43:30.363Z,0
2017-06-19T00:43:56.480Z,0
2017-06-19T00:44:22.588Z,0
2017-06-19T00:44:48.737Z,0
2017-06-19T00:45:14.853Z,0
2017-06-19T00:45:40.982Z,0
2017-06-19T00:46:07.091Z,0
2017-06-19T00:46:33.180Z,0
2017-06-19T00:46:59.308Z,0
2017-06-19T00:47:25.403Z,0
2017-06-19T00:47:51.541Z,0
2017-06-19T00:48:17.699Z,0
2017-06-19T00:48:43.789Z,0
2017-06-19T00:49:09.895Z,0
2017-06-19T00:49:36.031Z,0
2017-06-19T00:50:02.170Z,0
2017-06-19T00:50:28.296Z,0
2017-06-19T00:50:54.432Z,0
2017-06-19T00:51:20.523Z,0
2017-06-19T00:51:46.647Z,0
2017-06-19T00:52:12.755Z,0
2017-06-19T00:52:38.880Z,0
2017-06-19T00:53:04.990Z,0
2017-06-19T00:53:31.080Z,0
2017-06-19T00:53:57.182Z,0
2017-06-19T00:54:23.286Z,0
2017-06-19T00:54:49.376Z,0
2017-06-19T00:55:15.499Z,0
2017-06-19T00:55:41.607Z,0
2017-06-19T00:56:07.703Z,0
2017-06-19T00:56:33.821Z,0
2017-06-19T00:56:59.932Z,0
2017-06-19T00:57:26.029Z,0
2017-06-19T00:57:52.173Z,0
2017-06-19T00:58:18.281Z,0
2017-06-19T00:58:44.383Z,0
2017-06-19T00:59:10.473Z,0
2017-06-19T00:59:36.580Z,0
2017-06-19T01:00:02.689Z,0
2017-06-19T01:00:28.779Z,0
2017-06-19T01:00:54.904Z,0
2017-06-19T01:01:21.011Z,0
2017-06-19T01:01:47.101Z,0
2017-06-19T01:02:13.198Z,0
2017-06-19T01:02:39.306Z,0
2017-06-19T01:03:05.427Z,0
2017-06-19T01:03:31.570Z,0
2017-06-19T01:03:57.674Z,0
2017-06-19T01:04:23.776Z,0
2017-06-19T01:04:49.911Z,0
2017-06-19T01:05:16.029Z,0
2017-06-19T01:05:42.151Z,0
2017-06-19T01:06:08.289Z,0
2017-06-19T01:06:34.386Z,0
2017-06-19T01:07:00.477Z,0
2017-06-19T01:07:26.589Z,0
2017-06-19T01:07:52.688Z,0
2017-06-19T01:08:18.783Z,0
2017-06-19T01:08:44.890Z,0
2017-06-19T01:09:10.991Z,0
2017-06-19T01:09:37.092Z,0
2017-06-19T01:10:03.187Z,0
2017-06-19T01:10:29.279Z,0
2017-06-19T01:10:55.392Z,0
2017-06-19T01:11:21.489Z,0
2017-06-19T01:11:47.580Z,0
2017-06-19T01:12:13.717Z,0
2017-06-19T01:12:39.818Z,0
2017-06-19T01:13:05.909Z,0
2017-06-19T01:13:32.014Z,0
2017-06-19T01:13:58.163Z,0
2017-06-19T01:14:24.270Z,0
2017-06-19T01:14:50.400Z,0
2017-06-19T01:15:16.495Z,0
2017-06-19T01:15:42.603Z,0
2017-06-19T01:16:08.706Z,0
2017-06-19T01:16:34.798Z,0
2017-06-19T01:17:00.903Z,0
2017-06-19T01:17:27.014Z,0
2017-06-19T01:17:53.129Z,0
2017-06-19T01:18:19.232Z,0
2017-06-19T01:18:45.339Z,0
2017-06-19T01:19:11.430Z,0
2017-06-19T01:19:37.529Z,0
2017-06-19T01:20:03.664Z,0
2017-06-19T01:20:29.762Z,0
2017-06-19T01:20:55.870Z,0
2017-06-19T01:21:21.960Z,0
2017-06-19T01:21:48.061Z,0
2017-06-19T01:22:14.169Z,0
2017-06-19T01:22:40.290Z,0
2017-06-19T01:23:06.395Z,0
2017-06-19T01:23:32.498Z,0
2017-06-19T01:23:58.618Z,0
2017-06-19T01:24:24.757Z,0
2017-06-19T01:24:50.870Z,0
2017-06-19T01:25:16.968Z,0
2017-06-19T01:25:43.059Z,0
2017-06-19T01:26:09.169Z,0
2017-06-19T01:26:35.290Z,0
2017-06-19T01:27:01.425Z,0
2017-06-19T01:27:27.521Z,0
2017-06-19T01:27:53.637Z,0
2017-06-19T01:28:19.774Z,0
2017-06-19T01:28:45.872Z,0
2017-06-19T01:29:11.965Z,0
2017-06-19T01:29:38.070Z,0
2017-06-19T01:30:04.172Z,0
2017-06-19T01:30:30.263Z,0
2017-06-19T01:30:56.367Z,0
2017-06-19T01:31:22.474Z,0
2017-06-19T01:31:48.572Z,0
2017-06-19T01:32:15.024Z,0
2017-06-19T01:32:41.115Z,0
2017-06-19T01:33:07.250Z,0
2017-06-19T01:33:33.351Z,0
2017-06-19T01:33:59.444Z,0
2017-06-19T01:34:25.550Z,0
2017-06-19T01:34:51.658Z,0
2017-06-19T01:35:17.770Z,0
2017-06-19T01:35:43.897Z,0
2017-06-19T01:36:10.006Z,0
2017-06-19T01:36:36.098Z,0
2017-06-19T01:37:02.195Z,0
2017-06-19T01:37:28.321Z,0
2017-06-19T01:37:54.452Z,0
2017-06-19T01:38:20.559Z,0
2017-06-19T01:38:46.648Z,0
2017-06-19T01:39:12.750Z,0
2017-06-19T01:39:38.857Z,0
2017-06-19T01:40:04.973Z,0
2017-06-19T01:40:31.096Z,0
2017-06-19T01:40:57.202Z,0
2017-06-19T01:41:23.298Z,0
2017-06-19T01:41:49.415Z,0
2017-06-19T01:42:15.526Z,0
2017-06-19T01:42:41.625Z,0
2017-06-19T01:43:07.717Z,0
2017-06-19T01:43:33.824Z,0
2017-06-19T01:43:59.926Z,0
2017-06-19T01:44:26.018Z,0
2017-06-19T01:44:52.120Z,0
2017-06-19T01:45:18.256Z,0
2017-06-19T01:45:44.346Z,0
2017-06-19T01:46:10.498Z,0
2017-06-19T01:46:36.606Z,0
2017-06-19T01:47:02.720Z,0
2017-06-19T01:47:28.820Z,0
2017-06-19T01:47:54.955Z,0
2017-06-19T01:48:21.075Z,0
2017-06-19T01:48:47.181Z,0
2017-06-19T01:49:13.293Z,0
2017-06-19T01:49:39.422Z,0
2017-06-19T01:50:05.531Z,0
2017-06-19T01:50:31.621Z,0
2017-06-19T01:50:57.719Z,0
2017-06-19T01:51:23.827Z,0
2017-06-19T01:51:49.921Z,0
2017-06-19T01:52:16.012Z,0
2017-06-19T01:52:42.123Z,0
2017-06-19T01:53:08.222Z,0
2017-06-19T01:53:34.315Z,0
2017-06-19T01:54:00.422Z,0
2017-06-19T01:54:26.518Z,0
2017-06-19T01:54:52.628Z,0
2017-06-19T01:55:18.721Z,0
2017-06-19T01:55:44.811Z,0
2017-06-19T01:56:10.924Z,0
2017-06-19T01:56:37.023Z,0
2017-06-19T01:57:03.117Z,0
2017-06-19T01:57:29.227Z,0
2017-06-19T01:57:55.353Z,0
2017-06-19T01:58:21.470Z,0
2017-06-19T01:58:47.575Z,0
2017-06-19T01:59:13.752Z,0
2017-06-19T01:59:41.918Z,0
2017-06-19T02:00:09.038Z,0
2017-06-19T02:00:36.081Z,0
2017-06-19T02:01:04.014Z,0
2017-06-19T02:01:31.498Z,0
2017-06-19T02:01:58.971Z,0
2017-06-19T02:02:25.557Z,0
2017-06-19T02:02:53.556Z,0
2017-06-19T02:03:21.238Z,0
2017-06-19T02:03:49.462Z,0
2017-06-19T02:04:15.976Z,0
2017-06-19T02:04:42.067Z,0
2017-06-19T02:05:08.189Z,0
2017-06-19T02:05:34.287Z,0
2017-06-19T02:06:00.391Z,0
2017-06-19T02:06:26.498Z,0
2017-06-19T02:06:52.612Z,0
2017-06-19T02:07:18.712Z,0
2017-06-19T02:07:44.821Z,0
2017-06-19T02:08:10.913Z,0
2017-06-19T02:08:37.010Z,0
2017-06-19T02:09:03.118Z,0
2017-06-19T02:09:29.214Z,0
2017-06-19T02:09:55.306Z,0
2017-06-19T02:10:21.415Z,0
2017-06-19T02:10:47.513Z,0
2017-06-19T02:11:13.617Z,0
2017-06-19T02:11:39.739Z,0
2017-06-19T02:12:05.839Z,0
2017-06-19T02:12:31.946Z,0
2017-06-19T02:12:58.040Z,0
2017-06-19T02:13:24.134Z,0
2017-06-19T02:13:50.246Z,0
2017-06-19T02:14:16.344Z,0
2017-06-19T02:14:42.434Z,0
2017-06-19T02:15:08.544Z,0
2017-06-19T02:15:34.647Z,0
2017-06-19T02:16:00.741Z,0
2017-06-19T02:16:26.870Z,0
2017-06-19T02:16:53.014Z,0
2017-06-19T02:17:19.124Z,0
2017-06-19T02:17:45.224Z,0
2017-06-19T02:18:11.317Z,0
2017-06-19T02:18:37.454Z,0
2017-06-19T02:19:03.583Z,0
2017-06-19T02:19:29.700Z,0
2017-06-19T02:19:55.806Z,0
2017-06-19T02:20:21.942Z,0
2017-06-19T02:20:48.055Z,0
2017-06-19T02:21:14.156Z,0
2017-06-19T02:21:40.265Z,0
2017-06-19T02:22:06.387Z,0
2017-06-19T02:22:32.492Z,0
2017-06-19T02:22:58.610Z,0
2017-06-19T02:23:24.738Z,0
2017-06-19T02:23:50.903Z,0
2017-06-19T02:24:17.013Z,0
2017-06-19T02:24:43.115Z,0
2017-06-19T02:25:09.221Z,0
2017-06-19T02:25:35.329Z,0
2017-06-19T02:26:01.458Z,0
2017-06-19T02:26:27.552Z,0
2017-06-19T02:26:53.656Z,0
2017-06-19T02:27:19.765Z,0
2017-06-19T02:27:45.854Z,0
2017-06-19T02:28:11.955Z,0
2017-06-19T02:28:38.063Z,0
2017-06-19T02:29:04.153Z,0
2017-06-19T02:29:30.249Z,0
2017-06-19T02:29:56.358Z,0
2017-06-19T02:30:22.505Z,0
2017-06-19T02:30:48.596Z,0
2017-06-19T02:31:14.707Z,0
2017-06-19T02:31:40.830Z,0
2017-06-19T02:32:06.950Z,0
2017-06-19T02:32:33.112Z,0
2017-06-19T02:32:59.183Z,0
2017-06-19T02:33:25.311Z,0
2017-06-19T02:33:51.406Z,0
2017-06-19T02:34:17.500Z,0
2017-06-19T02:34:43.610Z,0
2017-06-19T02:35:09.710Z,0
2017-06-19T02:35:35.800Z,0
2017-06-19T02:36:01.907Z,0
2017-06-19T02:36:28.037Z,0
2017-06-19T02:36:54.129Z,0
2017-06-19T02:37:20.260Z,0
2017-06-19T02:37:46.368Z,0
2017-06-19T02:38:12.457Z,0
2017-06-19T02:38:38.585Z,0
2017-06-19T02:39:04.680Z,0
2017-06-19T02:39:30.812Z,0
2017-06-19T02:39:56.941Z,0
2017-06-19T02:40:23.084Z,0
2017-06-19T02:40:49.188Z,0
2017-06-19T02:41:15.325Z,0
2017-06-19T02:41:41.415Z,0
2017-06-19T02:42:07.541Z,0
2017-06-19T02:42:33.649Z,0
2017-06-19T02:42:59.771Z,0
2017-06-19T02:43:25.867Z,0
2017-06-19T02:43:51.975Z,0
2017-06-19T02:44:18.070Z,0
2017-06-19T02:44:44.202Z,0
2017-06-19T02:45:10.290Z,0
2017-06-19T02:45:36.389Z,0
2017-06-19T02:46:02.525Z,0
2017-06-19T02:46:28.618Z,0
2017-06-19T02:46:54.741Z,0
2017-06-19T02:47:20.881Z,0
2017-06-19T02:47:46.975Z,0
2017-06-19T02:48:13.065Z,0
2017-06-19T02:48:39.177Z,0
2017-06-19T02:49:05.275Z,0
2017-06-19T02:49:31.394Z,0
2017-06-19T02:49:57.531Z,0
2017-06-19T02:50:23.633Z,0
2017-06-19T02:50:49.762Z,0
2017-06-19T02:51:15.856Z,0
2017-06-19T02:51:41.962Z,0
2017-06-19T02:52:08.051Z,0
2017-06-19T02:52:34.178Z,0
2017-06-19T02:53:00.288Z,0
2017-06-19T02:53:26.380Z,0
2017-06-19T02:53:52.478Z,0
2017-06-19T02:54:18.640Z,0
2017-06-19T02:54:44.765Z,0
2017-06-19T02:55:10.883Z,0
2017-06-19T02:55:36.987Z,0
2017-06-19T02:56:03.088Z,0
2017-06-19T02:56:29.195Z,0
2017-06-19T02:56:55.310Z,0
2017-06-19T02:57:21.409Z,0
2017-06-19T02:57:47.517Z,0
2017-06-19T02:58:13.613Z,5
2017-06-19T02:58:39.729Z,5
2017-06-19T02:59:05.841Z,5
2017-06-19T02:59:31.939Z,5
2017-06-19T02:59:58.031Z,5
2017-06-19T03:00:24.138Z,5
2017-06-19T03:00:50.268Z,5
2017-06-19T03:01:16.369Z,5
2017-06-19T03:01:42.463Z,5
2017-06-19T03:02:08.555Z,5
2017-06-19T03:02:34.694Z,5
2017-06-19T03:03:00.817Z,5
2017-06-19T03:03:26.909Z,5
2017-06-19T03:03:53.016Z,5
2017-06-19T03:04:19.149Z,5
2017-06-19T03:04:45.242Z,5
2017-06-19T03:05:11.345Z,5
2017-06-19T03:05:37.452Z,5
2017-06-19T03:06:03.565Z,5
2017-06-19T03:06:29.667Z,5
2017-06-19T03:06:55.792Z,5
2017-06-19T03:07:21.929Z,10
2017-06-19T03:07:48.023Z,10
2017-06-19T03:08:14.115Z,10
2017-06-19T03:08:40.219Z,10
2017-06-19T03:09:06.327Z,10
2017-06-19T03:09:32.430Z,10
2017-06-19T03:09:58.533Z,10
2017-06-19T03:10:24.670Z,10
2017-06-19T03:10:50.759Z,10
2017-06-19T03:11:16.880Z,10
2017-06-19T03:11:42.989Z,10
2017-06-19T03:12:09.085Z,10
2017-06-19T03:12:35.175Z,10
2017-06-19T03:13:01.285Z,10
2017-06-19T03:13:27.385Z,10
2017-06-19T03:13:53.476Z,15
2017-06-19T03:14:19.632Z,15
2017-06-19T03:14:45.735Z,15
2017-06-19T03:15:11.825Z,15
2017-06-19T03:15:37.929Z,15
2017-06-19T03:16:04.035Z,15
2017-06-19T03:16:30.149Z,15
2017-06-19T03:16:56.276Z,15
2017-06-19T03:17:22.383Z,15
2017-06-19T03:17:48.475Z,15
2017-06-19T03:18:14.580Z,15
2017-06-19T03:18:40.671Z,15
2017-06-19T03:19:06.775Z,20
2017-06-19T03:19:32.881Z,20
2017-06-19T03:19:58.997Z,20
2017-06-19T03:20:25.097Z,20
2017-06-19T03:20:51.205Z,20
2017-06-19T03:21:17.296Z,20
2017-06-19T03:21:43.417Z,20
2017-06-19T03:22:09.525Z,20
2017-06-19T03:22:35.621Z,20
2017-06-19T03:23:01.738Z,20
2017-06-19T03:23:27.842Z,25
2017-06-19T03:23:53.969Z,25
2017-06-19T03:24:20.076Z,25
2017-06-19T03:24:46.168Z,25
2017-06-19T03:25:12.264Z,25
2017-06-19T03:25:38.372Z,25
2017-06-19T03:26:04.467Z,25
2017-06-19T03:26:30.559Z,25
2017-06-19T03:26:56.670Z,25
2017-06-19T03:27:22.823Z,25
2017-06-19T03:27:48.916Z,30
2017-06-19T03:28:15.025Z,30
2017-06-19T03:28:41.127Z,30
2017-06-19T03:29:07.255Z,30
2017-06-19T03:29:33.378Z,30
2017-06-19T03:29:59.474Z,30
2017-06-19T03:30:25.589Z,30
2017-06-19T03:30:51.687Z,35
2017-06-19T03:31:17.781Z,35
2017-06-19T03:31:43.888Z,35
2017-06-19T03:32:09.988Z,35
2017-06-19T03:32:36.103Z,35
2017-06-19T03:33:02.209Z,35
2017-06-19T03:33:28.344Z,35
2017-06-19T03:33:54.481Z,35
2017-06-19T03:34:20.584Z,35
2017-06-19T03:34:46.677Z,35
2017-06-19T03:35:12.811Z,40
2017-06-19T03:35:38.912Z,40
2017-06-19T03:36:05.007Z,40
2017-06-19T03:36:31.108Z,40
2017-06-19T03:36:57.217Z,40
2017-06-19T03:37:23.305Z,40
2017-06-19T03:37:49.430Z,40
2017-06-19T03:38:15.540Z,40
2017-06-19T03:38:41.630Z,45
2017-06-19T03:39:07.728Z,45
2017-06-19T03:39:33.836Z,45
2017-06-19T03:39:59.928Z,45
2017-06-19T03:40:26.036Z,45
2017-06-19T03:40:52.173Z,45
2017-06-19T03:41:18.275Z,45
2017-06-19T03:41:44.411Z,50
2017-06-19T03:42:10.500Z,50
2017-06-19T03:42:36.597Z,50
2017-06-19T03:43:02.729Z,50
2017-06-19T03:43:28.824Z,50
2017-06-19T03:43:54.916Z,50
2017-06-19T03:44:21.029Z,50
2017-06-19T03:44:47.125Z,50
2017-06-19T03:45:13.215Z,55
2017-06-19T03:45:39.323Z,55
2017-06-19T03:46:05.419Z,55
2017-06-19T03:46:31.552Z,55
2017-06-19T03:46:57.647Z,55
2017-06-19T03:47:23.740Z,55
2017-06-19T03:47:49.854Z,55
2017-06-19T03:48:15.950Z,55
2017-06-19T03:48:42.065Z,60
2017-06-19T03:49:08.197Z,60
2017-06-19T03:49:34.326Z,60
2017-06-19T03:50:00.442Z,60
2017-06-19T03:50:26.547Z,60
2017-06-19T03:50:52.712Z,60
2017-06-19T03:51:18.833Z,60
2017-06-19T03:51:44.933Z,65
2017-06-19T03:52:11.052Z,65
2017-06-19T03:52:37.160Z,65
2017-06-19T03:53:03.261Z,65
2017-06-19T03:53:29.353Z,65
2017-06-19T03:53:55.460Z,65
2017-06-19T03:54:21.569Z,65
2017-06-19T03:54:47.657Z,70
2017-06-19T03:55:13.811Z,70
2017-06-19T03:55:39.918Z,70
2017-06-19T03:56:06.009Z,70
2017-06-19T03:56:32.105Z,70
2017-06-19T03:56:58.214Z,70
2017-06-19T03:57:24.335Z,70
2017-06-19T03:57:50.425Z,75
2017-06-19T03:58:16.538Z,75
2017-06-19T03:58:42.737Z,75
2017-06-19T03:59:08.829Z,75
2017-06-19T03:59:34.937Z,75
2017-06-19T04:00:01.065Z,75
2017-06-19T04:00:27.159Z,75
2017-06-19T04:00:53.263Z,75
2017-06-19T04:01:19.370Z,80
2017-06-19T04:01:45.459Z,80
2017-06-19T04:02:11.560Z,80
2017-06-19T04:02:37.656Z,80
2017-06-19T04:03:03.765Z,80
2017-06-19T04:03:29.867Z,80
2017-06-19T04:03:55.983Z,80
2017-06-19T04:04:22.087Z,85
2017-06-19T04:04:48.195Z,85
2017-06-19T04:05:14.284Z,85
2017-06-19T04:05:40.387Z,85
2017-06-19T04:06:06.522Z,85
2017-06-19T04:06:32.613Z,85
2017-06-19T04:06:58.711Z,85
2017-06-19T04:07:24.845Z,90
2017-06-19T04:07:50.968Z,90
2017-06-19T04:08:17.078Z,90
2017-06-19T04:08:43.189Z,90
2017-06-19T04:09:09.319Z,90
2017-06-19T04:09:35.426Z,90
2017-06-19T04:10:01.518Z,90
2017-06-19T04:10:27.615Z,90
2017-06-19T04:10:53.723Z,95
2017-06-19T04:11:19.819Z,95
2017-06-19T04:11:45.913Z,95
2017-06-19T04:12:12.023Z,95
2017-06-19T04:12:38.120Z,95
2017-06-19T04:13:04.212Z,95
2017-06-19T04:13:30.319Z,95
2017-06-19T04:13:56.414Z,100
2017-06-19T04:14:22.549Z,100
2017-06-19T04:14:48.644Z,100
2017-06-19T04:15:14.762Z,100
2017-06-19T04:15:40.873Z,100
2017-06-19T04:16:06.995Z,100
2017-06-19T04:16:33.113Z,100
2017-06-19T04:16:59.245Z,105
2017-06-19T04:17:25.347Z,105
2017-06-19T04:17:51.464Z,105
2017-06-19T04:18:17.568Z,105
2017-06-19T04:18:43.676Z,105
2017-06-19T04:19:09.770Z,105
2017-06-19T04:19:35.869Z,105
2017-06-19T04:20:01.962Z,105
2017-06-19T04:20:28.068Z,110
2017-06-19T04:20:54.172Z,110
2017-06-19T04:21:20.288Z,110
2017-06-19T04:21:46.419Z,110
2017-06-19T04:22:12.525Z,110
2017-06-19T04:22:38.613Z,110
2017-06-19T04:23:04.765Z,110
2017-06-19T04:23:30.901Z,115
2017-06-19T04:23:57.022Z,115
2017-06-19T04:24:23.120Z,115
2017-06-19T04:24:49.244Z,115
2017-06-19T04:25:15.349Z,115
2017-06-19T04:25:41.457Z,115
2017-06-19T04:26:07.548Z,115
2017-06-19T04:26:33.648Z,120
2017-06-19T04:26:59.755Z,120
2017-06-19T04:27:25.870Z,120
2017-06-19T04:27:51.969Z,120
2017-06-19T04:28:18.076Z,120
2017-06-19T04:28:44.170Z,125
2017-06-19T04:29:10.293Z,125
2017-06-19T04:29:36.425Z,125
2017-06-19T04:30:02.522Z,130
2017-06-19T04:30:28.627Z,135
2017-06-19T04:30:54.743Z,145
2017-06-19T04:31:20.840Z,150
2017-06-19T04:31:46.948Z,155
2017-06-19T04:32:13.097Z,145
2017-06-19T04:32:39.215Z,135
2017-06-19T04:33:05.352Z,130
2017-06-19T04:33:31.448Z,130
2017-06-19T04:33:57.540Z,130
2017-06-19T04:34:23.647Z,135
2017-06-19T04:34:49.748Z,135
2017-06-19T04:35:15.840Z,135
2017-06-19T04:35:41.973Z,135
2017-06-19T04:36:08.066Z,140
2017-06-19T04:36:34.176Z,145
2017-06-19T04:37:00.275Z,145
2017-06-19T04:37:26.365Z,150
2017-06-19T04:37:52.471Z,155
2017-06-19T04:38:18.572Z,160
2017-06-19T04:38:44.690Z,205
2017-06-19T04:39:10.793Z,290
2017-06-19T04:39:36.926Z,395
2017-06-19T04:40:03.013Z,495
2017-06-19T04:40:29.132Z,595
2017-06-19T04:40:55.277Z,685
2017-06-19T04:41:21.368Z,730
2017-06-19T04:41:47.465Z,690
2017-06-19T04:42:13.575Z,660
2017-06-19T04:42:39.698Z,640
2017-06-19T04:43:05.813Z,640
2017-06-19T04:43:31.924Z,640
2017-06-19T04:43:58.023Z,655
2017-06-19T04:44:24.140Z,685
2017-06-19T04:44:50.248Z,680
2017-06-19T04:45:16.349Z,670
2017-06-19T04:45:42.440Z,670
2017-06-19T04:46:08.570Z,675
2017-06-19T04:46:34.679Z,670
2017-06-19T04:47:00.774Z,655
2017-06-19T04:47:26.874Z,640
2017-06-19T04:47:52.967Z,640
2017-06-19T04:48:19.077Z,670
2017-06-19T04:48:45.175Z,720
2017-06-19T04:49:11.267Z,775
2017-06-19T04:49:37.374Z,810
2017-06-19T04:50:03.485Z,825
2017-06-19T04:50:29.585Z,850
2017-06-19T04:50:55.705Z,865
2017-06-19T04:51:21.816Z,885
2017-06-19T04:51:47.936Z,905
2017-06-19T04:52:14.034Z,905
2017-06-19T04:52:40.135Z,900
2017-06-19T04:53:06.239Z,900
2017-06-19T04:53:32.375Z,895
2017-06-19T04:53:58.465Z,905
2017-06-19T04:54:24.570Z,920
2017-06-19T04:54:50.678Z,935
2017-06-19T04:55:16.824Z,935
2017-06-19T04:55:42.927Z,940
2017-06-19T04:56:09.035Z,950
2017-06-19T04:56:35.161Z,950
2017-06-19T04:57:01.281Z,955
2017-06-19T04:57:27.421Z,970
2017-06-19T04:57:53.522Z,965
2017-06-19T04:58:19.627Z,955
2017-06-19T04:58:45.745Z,945
2017-06-19T04:59:11.845Z,940
2017-06-19T04:59:37.956Z,940
2017-06-19T05:00:04.052Z,925
2017-06-19T05:00:30.146Z,915
2017-06-19T05:00:56.257Z,920
2017-06-19T05:01:22.360Z,915
2017-06-19T05:01:48.455Z,1000
2017-06-19T05:02:14.590Z,1040
2017-06-19T05:02:40.722Z,990
2017-06-19T05:03:06.817Z,915
2017-06-19T05:03:32.922Z,835
2017-06-19T05:03:59.016Z,730
2017-06-19T05:04:25.129Z,705
2017-06-19T05:04:51.257Z,675
2017-06-19T05:05:17.373Z,640
2017-06-19T05:05:43.484Z,590
2017-06-19T05:06:09.588Z,565
2017-06-19T05:06:35.681Z,540
2017-06-19T05:07:01.789Z,530
2017-06-19T05:07:27.927Z,525
2017-06-19T05:07:54.016Z,525
2017-06-19T05:08:20.120Z,520
2017-06-19T05:08:46.255Z,520
2017-06-19T05:09:12.349Z,525
2017-06-19T05:09:38.457Z,525
2017-06-19T05:10:04.550Z,525
2017-06-19T05:10:30.659Z,555
2017-06-19T05:10:56.770Z,620
2017-06-19T05:11:22.863Z,735
2017-06-19T05:11:48.992Z,800
2017-06-19T05:12:15.165Z,820
2017-06-19T05:12:41.277Z,740
2017-06-19T05:13:07.378Z,605
2017-06-19T05:13:33.490Z,475
2017-06-19T05:13:59.588Z,370
2017-06-19T05:14:25.698Z,305
2017-06-19T05:14:51.805Z,270
2017-06-19T05:15:17.933Z,260
2017-06-19T05:15:44.045Z,255
2017-06-19T05:16:10.137Z,255
2017-06-19T05:16:36.235Z,250
2017-06-19T05:17:02.373Z,250
2017-06-19T05:17:28.472Z,245
2017-06-19T05:17:54.565Z,245
2017-06-19T05:18:20.679Z,240
2017-06-19T05:18:46.778Z,240
2017-06-19T05:19:12.874Z,245
2017-06-19T05:19:38.984Z,245
2017-06-19T05:20:05.114Z,240
2017-06-19T05:20:31.218Z,240
2017-06-19T05:20:57.343Z,240
2017-06-19T05:21:23.458Z,240
2017-06-19T05:21:49.597Z,240
2017-06-19T05:22:15.724Z,240
2017-06-19T05:22:41.815Z,240
2017-06-19T05:23:07.954Z,240
2017-06-19T05:23:34.058Z,240
2017-06-19T05:24:00.175Z,240
2017-06-19T05:24:26.281Z,240
2017-06-19T05:24:52.419Z,240
2017-06-19T05:25:18.560Z,235
2017-06-19T05:25:44.687Z,235
2017-06-19T05:26:10.799Z,235
2017-06-19T05:26:36.920Z,235
2017-06-19T05:27:03.019Z,235
2017-06-19T05:27:29.128Z,235
2017-06-19T05:27:55.249Z,240
2017-06-19T05:28:21.367Z,235
2017-06-19T05:28:47.481Z,230
2017-06-19T05:29:13.631Z,230
2017-06-19T05:29:39.725Z,230
2017-06-19T05:30:05.833Z,230
2017-06-19T05:30:31.937Z,235
2017-06-19T05:30:58.029Z,230
2017-06-19T05:31:24.135Z,230
2017-06-19T05:31:50.228Z,230
2017-06-19T05:32:16.342Z,230
2017-06-19T05:32:42.469Z,230
2017-06-19T05:33:08.564Z,230
2017-06-19T05:33:34.672Z,230
2017-06-19T05:34:00.773Z,230
2017-06-19T05:34:26.890Z,225
2017-06-19T05:34:53.022Z,225
2017-06-19T05:35:19.158Z,225
2017-06-19T05:35:45.248Z,225
2017-06-19T05:36:11.377Z,225
2017-06-19T05:36:37.484Z,230
2017-06-19T05:37:03.578Z,230
2017-06-19T05:37:29.711Z,230
2017-06-19T05:37:55.803Z,230
2017-06-19T05:38:21.908Z,230
2017-06-19T05:38:48.018Z,230
2017-06-19T05:39:14.109Z,230
2017-06-19T05:39:40.212Z,230
2017-06-19T05:40:06.322Z,230
2017-06-19T05:40:32.438Z,235
2017-06-19T05:40:58.537Z,235
2017-06-19T05:41:24.647Z,235
2017-06-19T05:41:50.746Z,235
2017-06-19T05:42:16.837Z,235
2017-06-19T05:42:42.942Z,235
2017-06-19T05:43:09.044Z,235
2017-06-19T05:43:35.153Z,235
2017-06-19T05:44:01.247Z,235
2017-06-19T05:44:27.372Z,235
2017-06-19T05:44:53.478Z,235
2017-06-19T05:45:19.574Z,235
2017-06-19T05:45:45.691Z,235
2017-06-19T05:46:11.804Z,240
2017-06-19T05:46:37.933Z,240
2017-06-19T05:47:04.021Z,240
2017-06-19T05:47:30.131Z,240
2017-06-19T05:47:56.261Z,240
2017-06-19T05:48:22.361Z,240
2017-06-19T05:48:48.458Z,240
2017-06-19T05:49:14.551Z,240
2017-06-19T05:49:40.689Z,240
2017-06-19T05:50:06.786Z,240
2017-06-19T05:50:32.904Z,240
2017-06-19T05:50:59.011Z,240
2017-06-19T05:51:25.115Z,240
2017-06-19T05:51:51.207Z,240
2017-06-19T05:52:17.365Z,240
2017-06-19T05:52:43.474Z,240
2017-06-19T05:53:09.564Z,245
2017-06-19T05:53:35.666Z,245
2017-06-19T05:54:01.763Z,245
2017-06-19T05:54:27.871Z,245
2017-06-19T05:54:53.973Z,245
2017-06-19T05:55:20.065Z,245
2017-06-19T05:55:46.170Z,250
2017-06-19T05:56:12.279Z,245
2017-06-19T05:56:38.370Z,245
2017-06-19T05:57:04.475Z,245
2017-06-19T05:57:30.581Z,245
2017-06-19T05:57:56.675Z,245
2017-06-19T05:58:22.773Z,245
2017-06-19T05:58:48.882Z,235
2017-06-19T05:59:14.981Z,235
2017-06-19T05:59:41.090Z,235
2017-06-19T06:00:07.181Z,240
2017-06-19T06:00:33.313Z,245
2017-06-19T06:00:59.422Z,240
2017-06-19T06:01:25.641Z,240
2017-06-19T06:01:51.841Z,240
2017-06-19T06:02:18.062Z,240
2017-06-19T06:02:44.184Z,240
2017-06-19T06:03:10.277Z,240
2017-06-19T06:03:36.388Z,240
2017-06-19T06:04:02.486Z,240
2017-06-19T06:04:28.581Z,245
2017-06-19T06:04:54.686Z,245
2017-06-19T06:05:20.835Z,245
2017-06-19T06:05:46.945Z,245
2017-06-19T06:06:13.041Z,245
2017-06-19T06:06:39.132Z,245
2017-06-19T06:07:05.245Z,245
2017-06-19T06:07:31.369Z,245
2017-06-19T06:07:57.487Z,245
2017-06-19T06:08:23.619Z,245
2017-06-19T06:08:49.722Z,245
2017-06-19T06:09:15.817Z,250
2017-06-19T06:09:41.920Z,250
2017-06-19T06:10:08.056Z,250
2017-06-19T06:10:34.147Z,250
2017-06-19T06:11:00.250Z,250
2017-06-19T06:11:26.362Z,250
2017-06-19T06:11:52.477Z,255
2017-06-19T06:12:18.599Z,250
2017-06-19T06:12:44.766Z,255
2017-06-19T06:13:10.862Z,250
2017-06-19T06:13:36.982Z,250
2017-06-19T06:14:03.121Z,250
2017-06-19T06:14:29.236Z,250
2017-06-19T06:14:55.340Z,250